Terminal Aerodrome Forecast
Issued by NWS Cleveland, OH

Home | Current Version | Previous Version | Graphics & Text | Print | Product List | Glossary On
Versions: 1 2 3 4 5 6 7 8 9 10 11 12 13 14 15 16 17 18 19 20 21 22 23 24 25 26 27
381
FTUS41 KCLE 180603 AAA
TAFERI
TAF AMD
KERI 180603Z 1806/1906 25012G20KT 4SM BR OVC003
      TEMPO 1806/1809 2SM BR
     FM180900 25012KT 2SM -RA BR OVC003
     FM181400 25010KT 6SM BR OVC003
     FM181800 25010KT P6SM OVC007
     FM190200 22008KT P6SM OVC012=

USA.gov is the U.S. government's official web portal to all federal, state and local government web resources and services.